sensor_id;sensor_type;location;lat;lon;timestamp;P1;durP1;ratioP1;P2;durP2;ratioP2
73454;SDS011;61690;51.824;6.306;2022-12-19T00:01:16;10.02;;;6.20;;
73454;SDS011;61690;51.824;6.306;2022-12-19T00:03:46;10.33;;;6.13;;
73454;SDS011;61690;51.824;6.306;2022-12-19T00:06:12;10.60;;;6.57;;
73454;SDS011;61690;51.824;6.306;2022-12-19T00:08:41;9.57;;;6.20;;
73454;SDS011;61690;51.824;6.306;2022-12-19T00:11:08;9.50;;;6.22;;
73454;SDS011;61690;51.824;6.306;2022-12-19T00:13:34;9.90;;;6.10;;
73454;SDS011;61690;51.824;6.306;2022-12-19T00:16:07;10.13;;;6.40;;
73454;SDS011;61690;51.824;6.306;2022-12-19T00:18:41;9.90;;;6.15;;
73454;SDS011;61690;51.824;6.306;2022-12-19T00:21:08;9.70;;;6.18;;
73454;SDS011;61690;51.824;6.306;2022-12-19T00:23:35;10.17;;;6.00;;
73454;SDS011;61690;51.824;6.306;2022-12-19T00:26:08;9.38;;;6.28;;
73454;SDS011;61690;51.824;6.306;2022-12-19T00:28:44;9.65;;;6.35;;
73454;SDS011;61690;51.824;6.306;2022-12-19T00:31:11;10.20;;;6.10;;
73454;SDS011;61690;51.824;6.306;2022-12-19T00:33:38;9.57;;;5.93;;
73454;SDS011;61690;51.824;6.306;2022-12-19T00:36:04;10.40;;;6.80;;
73454;SDS011;61690;51.824;6.306;2022-12-19T00:38:32;10.40;;;6.60;;
73454;SDS011;61690;51.824;6.306;2022-12-19T00:43:36;9.77;;;6.03;;
73454;SDS011;61690;51.824;6.306;2022-12-19T00:46:03;9.60;;;5.93;;
73454;SDS011;61690;51.824;6.306;2022-12-19T00:48:30;9.85;;;5.90;;
73454;SDS011;61690;51.824;6.306;2022-12-19T00:50:59;10.60;;;6.00;;
73454;SDS011;61690;51.824;6.306;2022-12-19T00:53:29;11.10;;;6.60;;
73454;SDS011;61690;51.824;6.306;2022-12-19T00:55:54;9.87;;;5.93;;
73454;SDS011;61690;51.824;6.306;2022-12-19T00:58:20;10.03;;;6.30;;
73454;SDS011;61690;51.824;6.306;2022-12-19T01:00:45;10.40;;;6.20;;
73454;SDS011;61690;51.824;6.306;2022-12-19T01:03:10;10.93;;;6.20;;
73454;SDS011;61690;51.824;6.306;2022-12-19T01:05:36;10.40;;;5.97;;
73454;SDS011;61690;51.824;6.306;2022-12-19T01:08:01;9.40;;;5.83;;
73454;SDS011;61690;51.824;6.306;2022-12-19T01:10:26;9.80;;;5.80;;
73454;SDS011;61690;51.824;6.306;2022-12-19T01:12:52;9.93;;;5.83;;
73454;SDS011;61690;51.824;6.306;2022-12-19T01:15:18;10.27;;;6.10;;
73454;SDS011;61690;51.824;6.306;2022-12-19T01:17:45;9.82;;;6.10;;
73454;SDS011;61690;51.824;6.306;2022-12-19T01:20:12;9.80;;;6.45;;
73454;SDS011;61690;51.824;6.306;2022-12-19T01:22:39;9.73;;;5.90;;
73454;SDS011;61690;51.824;6.306;2022-12-19T01:25:04;10.77;;;6.20;;
73454;SDS011;61690;51.824;6.306;2022-12-19T01:27:30;10.27;;;6.03;;
73454;SDS011;61690;51.824;6.306;2022-12-19T01:29:55;10.23;;;6.10;;
73454;SDS011;61690;51.824;6.306;2022-12-19T01:32:21;9.43;;;5.50;;
73454;SDS011;61690;51.824;6.306;2022-12-19T01:34:47;9.13;;;5.60;;
73454;SDS011;61690;51.824;6.306;2022-12-19T01:37:12;10.30;;;5.83;;
73454;SDS011;61690;51.824;6.306;2022-12-19T01:39:39;10.30;;;6.07;;
73454;SDS011;61690;51.824;6.306;2022-12-19T01:42:08;10.30;;;5.80;;
73454;SDS011;61690;51.824;6.306;2022-12-19T01:44:38;9.82;;;5.75;;
73454;SDS011;61690;51.824;6.306;2022-12-19T01:47:03;10.10;;;6.00;;
73454;SDS011;61690;51.824;6.306;2022-12-19T01:51:59;9.43;;;5.93;;
73454;SDS011;61690;51.824;6.306;2022-12-19T01:54:30;9.80;;;5.95;;
73454;SDS011;61690;51.824;6.306;2022-12-19T01:56:58;9.70;;;6.03;;
73454;SDS011;61690;51.824;6.306;2022-12-19T01:59:28;10.00;;;6.23;;
73454;SDS011;61690;51.824;6.306;2022-12-19T02:02:13;9.77;;;5.88;;
73454;SDS011;61690;51.824;6.306;2022-12-19T02:04:41;10.65;;;5.88;;
73454;SDS011;61690;51.824;6.306;2022-12-19T02:07:07;9.25;;;5.40;;
73454;SDS011;61690;51.824;6.306;2022-12-19T02:09:33;9.60;;;5.90;;
73454;SDS011;61690;51.824;6.306;2022-12-19T02:12:00;10.02;;;5.60;;
73454;SDS011;61690;51.824;6.306;2022-12-19T02:14:26;8.73;;;5.78;;
73454;SDS011;61690;51.824;6.306;2022-12-19T02:35:58;10.00;;;5.60;;
73454;SDS011;61690;51.824;6.306;2022-12-19T02:38:35;9.43;;;5.57;;
73454;SDS011;61690;51.824;6.306;2022-12-19T02:41:07;9.18;;;5.63;;
73454;SDS011;61690;51.824;6.306;2022-12-19T02:43:34;8.73;;;5.80;;
73454;SDS011;61690;51.824;6.306;2022-12-19T02:46:04;9.82;;;6.03;;
73454;SDS011;61690;51.824;6.306;2022-12-19T02:48:30;9.88;;;5.40;;
73454;SDS011;61690;51.824;6.306;2022-12-19T02:50:56;9.87;;;6.10;;
73454;SDS011;61690;51.824;6.306;2022-12-19T02:53:21;9.45;;;5.35;;
73454;SDS011;61690;51.824;6.306;2022-12-19T02:55:52;8.97;;;5.20;;
73454;SDS011;61690;51.824;6.306;2022-12-19T02:58:40;8.85;;;5.50;;
73454;SDS011;61690;51.824;6.306;2022-12-19T03:01:16;8.80;;;5.53;;
73454;SDS011;61690;51.824;6.306;2022-12-19T03:06:40;8.88;;;5.40;;
73454;SDS011;61690;51.824;6.306;2022-12-19T03:09:23;8.73;;;5.40;;
73454;SDS011;61690;51.824;6.306;2022-12-19T03:11:52;9.30;;;5.70;;
73454;SDS011;61690;51.824;6.306;2022-12-19T03:14:25;9.30;;;5.90;;
73454;SDS011;61690;51.824;6.306;2022-12-19T03:16:52;8.90;;;5.47;;
73454;SDS011;61690;51.824;6.306;2022-12-19T03:19:17;9.07;;;5.40;;
73454;SDS011;61690;51.824;6.306;2022-12-19T03:21:44;10.43;;;5.97;;
73454;SDS011;61690;51.824;6.306;2022-12-19T03:24:14;9.83;;;5.80;;
73454;SDS011;61690;51.824;6.306;2022-12-19T03:29:30;8.68;;;5.18;;
73454;SDS011;61690;51.824;6.306;2022-12-19T03:31:59;9.52;;;5.68;;
73454;SDS011;61690;51.824;6.306;2022-12-19T03:34:28;9.45;;;5.30;;
73454;SDS011;61690;51.824;6.306;2022-12-19T03:37:15;9.37;;;5.57;;
73454;SDS011;61690;51.824;6.306;2022-12-19T03:39:44;9.20;;;5.72;;
73454;SDS011;61690;51.824;6.306;2022-12-19T03:42:13;8.82;;;5.35;;
73454;SDS011;61690;51.824;6.306;2022-12-19T03:44:58;9.77;;;5.85;;
73454;SDS011;61690;51.824;6.306;2022-12-19T03:50:08;8.83;;;5.23;;
73454;SDS011;61690;51.824;6.306;2022-12-19T03:55:29;8.15;;;4.93;;
73454;SDS011;61690;51.824;6.306;2022-12-19T03:58:08;8.82;;;5.00;;
73454;SDS011;61690;51.824;6.306;2022-12-19T04:00:43;8.63;;;5.40;;
73454;SDS011;61690;51.824;6.306;2022-12-19T04:03:12;9.03;;;5.17;;
73454;SDS011;61690;51.824;6.306;2022-12-19T04:05:41;8.48;;;5.20;;
73454;SDS011;61690;51.824;6.306;2022-12-19T04:08:09;8.43;;;5.25;;
73454;SDS011;61690;51.824;6.306;2022-12-19T04:10:38;9.85;;;5.78;;
73454;SDS011;61690;51.824;6.306;2022-12-19T04:13:12;9.50;;;5.15;;
73454;SDS011;61690;51.824;6.306;2022-12-19T04:18:34;8.90;;;5.20;;
73454;SDS011;61690;51.824;6.306;2022-12-19T04:21:07;8.38;;;4.95;;
73454;SDS011;61690;51.824;6.306;2022-12-19T04:23:44;8.05;;;5.10;;
73454;SDS011;61690;51.824;6.306;2022-12-19T04:26:14;9.07;;;5.35;;
73454;SDS011;61690;51.824;6.306;2022-12-19T04:28:43;9.03;;;5.07;;
73454;SDS011;61690;51.824;6.306;2022-12-19T04:31:14;8.30;;;4.90;;
73454;SDS011;61690;51.824;6.306;2022-12-19T04:33:40;7.95;;;5.10;;
73454;SDS011;61690;51.824;6.306;2022-12-19T04:36:06;8.03;;;5.03;;
73454;SDS011;61690;51.824;6.306;2022-12-19T04:38:31;8.38;;;4.85;;
73454;SDS011;61690;51.824;6.306;2022-12-19T04:40:57;8.60;;;5.03;;
73454;SDS011;61690;51.824;6.306;2022-12-19T04:43:22;8.37;;;5.10;;
73454;SDS011;61690;51.824;6.306;2022-12-19T04:45:47;8.20;;;5.20;;
73454;SDS011;61690;51.824;6.306;2022-12-19T04:48:13;8.88;;;4.70;;
73454;SDS011;61690;51.824;6.306;2022-12-19T04:50:38;8.47;;;4.87;;
73454;SDS011;61690;51.824;6.306;2022-12-19T04:53:03;7.60;;;4.40;;
73454;SDS011;61690;51.824;6.306;2022-12-19T04:55:29;8.27;;;4.77;;
73454;SDS011;61690;51.824;6.306;2022-12-19T04:57:54;8.17;;;4.60;;
73454;SDS011;61690;51.824;6.306;2022-12-19T05:00:19;7.87;;;4.70;;
73454;SDS011;61690;51.824;6.306;2022-12-19T05:02:45;8.07;;;4.73;;
73454;SDS011;61690;51.824;6.306;2022-12-19T05:05:10;8.30;;;4.63;;
73454;SDS011;61690;51.824;6.306;2022-12-19T05:07:35;7.93;;;4.93;;
73454;SDS011;61690;51.824;6.306;2022-12-19T05:10:00;7.67;;;4.67;;
73454;SDS011;61690;51.824;6.306;2022-12-19T05:12:27;8.37;;;4.70;;
73454;SDS011;61690;51.824;6.306;2022-12-19T05:14:53;8.10;;;4.38;;
73454;SDS011;61690;51.824;6.306;2022-12-19T05:17:18;7.53;;;4.40;;
73454;SDS011;61690;51.824;6.306;2022-12-19T05:19:43;8.47;;;4.57;;
73454;SDS011;61690;51.824;6.306;2022-12-19T05:22:09;9.17;;;5.00;;
73454;SDS011;61690;51.824;6.306;2022-12-19T05:24:34;8.63;;;4.50;;
73454;SDS011;61690;51.824;6.306;2022-12-19T05:26:59;8.33;;;4.53;;
73454;SDS011;61690;51.824;6.306;2022-12-19T05:29:24;7.17;;;4.30;;
73454;SDS011;61690;51.824;6.306;2022-12-19T05:31:50;7.63;;;4.43;;
73454;SDS011;61690;51.824;6.306;2022-12-19T05:34:15;7.07;;;4.20;;
73454;SDS011;61690;51.824;6.306;2022-12-19T05:36:40;7.30;;;4.53;;
73454;SDS011;61690;51.824;6.306;2022-12-19T05:39:06;8.23;;;4.70;;
73454;SDS011;61690;51.824;6.306;2022-12-19T05:41:31;7.70;;;4.47;;
73454;SDS011;61690;51.824;6.306;2022-12-19T05:43:56;7.87;;;4.40;;
73454;SDS011;61690;51.824;6.306;2022-12-19T05:46:22;6.95;;;4.30;;
73454;SDS011;61690;51.824;6.306;2022-12-19T05:48:48;8.23;;;4.67;;
73454;SDS011;61690;51.824;6.306;2022-12-19T05:51:14;9.65;;;4.20;;
73454;SDS011;61690;51.824;6.306;2022-12-19T05:53:40;7.67;;;4.10;;
73454;SDS011;61690;51.824;6.306;2022-12-19T05:56:06;9.40;;;4.20;;
73454;SDS011;61690;51.824;6.306;2022-12-19T05:58:33;8.18;;;4.22;;
73454;SDS011;61690;51.824;6.306;2022-12-19T06:01:02;7.20;;;3.92;;
73454;SDS011;61690;51.824;6.306;2022-12-19T06:03:32;8.45;;;4.20;;
73454;SDS011;61690;51.824;6.306;2022-12-19T06:06:01;7.00;;;4.00;;
73454;SDS011;61690;51.824;6.306;2022-12-19T06:08:30;6.93;;;3.90;;
73454;SDS011;61690;51.824;6.306;2022-12-19T06:10:59;7.90;;;4.00;;
73454;SDS011;61690;51.824;6.306;2022-12-19T06:13:27;7.57;;;4.10;;
73454;SDS011;61690;51.824;6.306;2022-12-19T06:18:32;7.60;;;4.03;;
73454;SDS011;61690;51.824;6.306;2022-12-19T06:21:05;7.47;;;3.73;;
73454;SDS011;61690;51.824;6.306;2022-12-19T06:23:32;7.80;;;3.70;;
73454;SDS011;61690;51.824;6.306;2022-12-19T06:25:59;6.20;;;3.58;;
73454;SDS011;61690;51.824;6.306;2022-12-19T06:28:26;8.50;;;3.97;;
73454;SDS011;61690;51.824;6.306;2022-12-19T06:30:55;6.78;;;3.72;;
73454;SDS011;61690;51.824;6.306;2022-12-19T06:33:24;7.20;;;3.83;;
73454;SDS011;61690;51.824;6.306;2022-12-19T06:36:00;8.73;;;3.67;;
73454;SDS011;61690;51.824;6.306;2022-12-19T06:38:30;7.90;;;3.50;;
73454;SDS011;61690;51.824;6.306;2022-12-19T06:40:56;6.93;;;3.72;;
73454;SDS011;61690;51.824;6.306;2022-12-19T06:43:40;7.33;;;3.60;;
73454;SDS011;61690;51.824;6.306;2022-12-19T06:46:06;7.78;;;3.70;;
73454;SDS011;61690;51.824;6.306;2022-12-19T06:48:31;7.93;;;3.63;;
73454;SDS011;61690;51.824;6.306;2022-12-19T06:50:57;6.07;;;3.30;;
73454;SDS011;61690;51.824;6.306;2022-12-19T06:53:22;6.87;;;3.43;;
73454;SDS011;61690;51.824;6.306;2022-12-19T06:55:48;7.17;;;3.43;;
73454;SDS011;61690;51.824;6.306;2022-12-19T06:58:15;7.07;;;3.42;;
73454;SDS011;61690;51.824;6.306;2022-12-19T07:00:41;8.30;;;3.37;;
73454;SDS011;61690;51.824;6.306;2022-12-19T07:03:06;7.00;;;3.23;;
73454;SDS011;61690;51.824;6.306;2022-12-19T07:05:35;6.30;;;3.45;;
73454;SDS011;61690;51.824;6.306;2022-12-19T07:08:01;6.40;;;3.40;;
73454;SDS011;61690;51.824;6.306;2022-12-19T07:10:27;6.82;;;3.58;;
73454;SDS011;61690;51.824;6.306;2022-12-19T07:12:53;6.50;;;3.50;;
73454;SDS011;61690;51.824;6.306;2022-12-19T07:15:18;8.80;;;3.70;;
73454;SDS011;61690;51.824;6.306;2022-12-19T07:17:43;6.30;;;3.50;;
73454;SDS011;61690;51.824;6.306;2022-12-19T07:20:09;7.20;;;3.20;;
73454;SDS011;61690;51.824;6.306;2022-12-19T07:22:36;6.53;;;3.27;;
73454;SDS011;61690;51.824;6.306;2022-12-19T07:25:02;6.35;;;3.30;;
73454;SDS011;61690;51.824;6.306;2022-12-19T07:27:28;6.97;;;3.47;;
73454;SDS011;61690;51.824;6.306;2022-12-19T07:29:54;9.30;;;3.60;;
73454;SDS011;61690;51.824;6.306;2022-12-19T07:32:19;6.90;;;3.30;;
73454;SDS011;61690;51.824;6.306;2022-12-19T07:34:45;8.77;;;3.30;;
73454;SDS011;61690;51.824;6.306;2022-12-19T07:37:11;6.13;;;3.13;;
73454;SDS011;61690;51.824;6.306;2022-12-19T07:39:36;12.27;;;3.27;;
73454;SDS011;61690;51.824;6.306;2022-12-19T07:42:01;7.33;;;3.10;;
73454;SDS011;61690;51.824;6.306;2022-12-19T07:44:27;6.00;;;3.25;;
73454;SDS011;61690;51.824;6.306;2022-12-19T07:46:52;7.20;;;3.23;;
73454;SDS011;61690;51.824;6.306;2022-12-19T07:49:17;7.63;;;3.10;;
73454;SDS011;61690;51.824;6.306;2022-12-19T07:51:43;6.20;;;3.00;;
73454;SDS011;61690;51.824;6.306;2022-12-19T07:54:08;6.60;;;3.30;;
73454;SDS011;61690;51.824;6.306;2022-12-19T07:56:33;6.95;;;2.92;;
73454;SDS011;61690;51.824;6.306;2022-12-19T07:58:59;7.63;;;3.50;;
73454;SDS011;61690;51.824;6.306;2022-12-19T08:01:24;6.73;;;3.17;;
73454;SDS011;61690;51.824;6.306;2022-12-19T08:03:49;7.73;;;3.23;;
73454;SDS011;61690;51.824;6.306;2022-12-19T08:06:15;6.97;;;3.40;;
73454;SDS011;61690;51.824;6.306;2022-12-19T08:08:40;6.73;;;3.40;;
73454;SDS011;61690;51.824;6.306;2022-12-19T08:11:13;7.43;;;3.20;;
73454;SDS011;61690;51.824;6.306;2022-12-19T08:13:41;6.70;;;3.00;;
73454;SDS011;61690;51.824;6.306;2022-12-19T08:16:07;7.82;;;3.00;;
73454;SDS011;61690;51.824;6.306;2022-12-19T08:18:32;7.50;;;3.40;;
73454;SDS011;61690;51.824;6.306;2022-12-19T08:20:57;6.67;;;3.17;;
73454;SDS011;61690;51.824;6.306;2022-12-19T08:23:23;7.03;;;3.60;;
73454;SDS011;61690;51.824;6.306;2022-12-19T08:25:48;7.30;;;3.13;;
73454;SDS011;61690;51.824;6.306;2022-12-19T08:28:14;5.50;;;2.77;;
73454;SDS011;61690;51.824;6.306;2022-12-19T08:30:39;5.80;;;3.20;;
73454;SDS011;61690;51.824;6.306;2022-12-19T08:33:05;7.22;;;3.17;;
73454;SDS011;61690;51.824;6.306;2022-12-19T08:35:31;6.67;;;3.20;;
73454;SDS011;61690;51.824;6.306;2022-12-19T08:37:56;6.28;;;2.90;;
73454;SDS011;61690;51.824;6.306;2022-12-19T08:40:22;5.73;;;3.13;;
73454;SDS011;61690;51.824;6.306;2022-12-19T08:42:48;7.00;;;2.83;;
73454;SDS011;61690;51.824;6.306;2022-12-19T08:45:14;6.57;;;3.20;;
73454;SDS011;61690;51.824;6.306;2022-12-19T08:47:40;6.50;;;2.90;;
73454;SDS011;61690;51.824;6.306;2022-12-19T08:50:07;8.23;;;3.10;;
73454;SDS011;61690;51.824;6.306;2022-12-19T08:52:33;6.10;;;3.27;;
73454;SDS011;61690;51.824;6.306;2022-12-19T08:54:58;5.70;;;2.73;;
73454;SDS011;61690;51.824;6.306;2022-12-19T08:57:24;5.50;;;3.05;;
73454;SDS011;61690;51.824;6.306;2022-12-19T08:59:50;5.70;;;2.67;;
73454;SDS011;61690;51.824;6.306;2022-12-19T09:02:15;5.87;;;2.87;;
73454;SDS011;61690;51.824;6.306;2022-12-19T09:04:40;5.60;;;2.80;;
73454;SDS011;61690;51.824;6.306;2022-12-19T09:07:05;6.90;;;2.83;;
73454;SDS011;61690;51.824;6.306;2022-12-19T09:09:31;5.87;;;3.10;;
73454;SDS011;61690;51.824;6.306;2022-12-19T09:11:56;6.10;;;2.90;;
73454;SDS011;61690;51.824;6.306;2022-12-19T09:14:21;5.93;;;2.90;;
73454;SDS011;61690;51.824;6.306;2022-12-19T09:16:47;5.60;;;3.20;;
73454;SDS011;61690;51.824;6.306;2022-12-19T09:19:12;6.20;;;2.75;;
73454;SDS011;61690;51.824;6.306;2022-12-19T09:21:40;5.40;;;2.67;;
73454;SDS011;61690;51.824;6.306;2022-12-19T09:24:06;5.15;;;2.50;;
73454;SDS011;61690;51.824;6.306;2022-12-19T09:26:33;6.20;;;2.78;;
73454;SDS011;61690;51.824;6.306;2022-12-19T09:28:59;5.57;;;2.80;;
73454;SDS011;61690;51.824;6.306;2022-12-19T09:31:24;5.40;;;2.67;;
73454;SDS011;61690;51.824;6.306;2022-12-19T09:33:50;5.70;;;2.73;;
73454;SDS011;61690;51.824;6.306;2022-12-19T09:36:17;5.53;;;2.70;;
73454;SDS011;61690;51.824;6.306;2022-12-19T09:38:45;5.22;;;2.67;;
73454;SDS011;61690;51.824;6.306;2022-12-19T09:46:46;6.47;;;2.92;;
73454;SDS011;61690;51.824;6.306;2022-12-19T09:49:18;5.47;;;2.90;;
73454;SDS011;61690;51.824;6.306;2022-12-19T09:52:48;6.00;;;2.95;;
73454;SDS011;61690;51.824;6.306;2022-12-19T09:54:45;5.80;;;2.60;;
73454;SDS011;61690;51.824;6.306;2022-12-19T09:57:17;8.98;;;3.78;;
73454;SDS011;61690;51.824;6.306;2022-12-19T09:59:49;6.05;;;2.35;;
73454;SDS011;61690;51.824;6.306;2022-12-19T10:05:23;5.80;;;2.30;;
73454;SDS011;61690;51.824;6.306;2022-12-19T10:07:55;4.95;;;2.60;;
73454;SDS011;61690;51.824;6.306;2022-12-19T10:11:03;6.50;;;2.70;;
73454;SDS011;61690;51.824;6.306;2022-12-19T10:18:48;8.02;;;3.00;;
73454;SDS011;61690;51.824;6.306;2022-12-19T10:24:12;5.05;;;2.42;;
73454;SDS011;61690;51.824;6.306;2022-12-19T10:26:53;6.53;;;2.90;;
73454;SDS011;61690;51.824;6.306;2022-12-19T10:29:29;7.30;;;2.50;;
73454;SDS011;61690;51.824;6.306;2022-12-19T10:31:59;6.75;;;2.55;;
73454;SDS011;61690;51.824;6.306;2022-12-19T10:34:33;5.43;;;2.70;;
73454;SDS011;61690;51.824;6.306;2022-12-19T10:37:16;4.93;;;2.58;;
73454;SDS011;61690;51.824;6.306;2022-12-19T10:42:21;5.53;;;2.80;;
73454;SDS011;61690;51.824;6.306;2022-12-19T10:44:54;5.50;;;2.42;;
73454;SDS011;61690;51.824;6.306;2022-12-19T10:47:23;6.07;;;2.70;;
73454;SDS011;61690;51.824;6.306;2022-12-19T10:49:49;6.17;;;2.77;;
73454;SDS011;61690;51.824;6.306;2022-12-19T10:52:14;5.77;;;2.87;;
73454;SDS011;61690;51.824;6.306;2022-12-19T10:54:40;6.70;;;2.67;;
73454;SDS011;61690;51.824;6.306;2022-12-19T10:57:26;5.57;;;2.35;;
73454;SDS011;61690;51.824;6.306;2022-12-19T11:00:00;5.15;;;2.65;;
73454;SDS011;61690;51.824;6.306;2022-12-19T11:02:39;4.93;;;2.53;;
73454;SDS011;61690;51.824;6.306;2022-12-19T11:05:18;6.20;;;2.83;;
73454;SDS011;61690;51.824;6.306;2022-12-19T11:07:57;5.20;;;2.70;;
73454;SDS011;61690;51.824;6.306;2022-12-19T11:13:24;5.47;;;2.53;;
73454;SDS011;61690;51.824;6.306;2022-12-19T11:15:51;5.15;;;2.70;;
73454;SDS011;61690;51.824;6.306;2022-12-19T11:18:18;5.40;;;2.90;;
73454;SDS011;61690;51.824;6.306;2022-12-19T11:21:01;4.90;;;2.60;;
73454;SDS011;61690;51.824;6.306;2022-12-19T11:29:16;5.90;;;2.60;;
73454;SDS011;61690;51.824;6.306;2022-12-19T11:31:42;5.10;;;2.60;;
73454;SDS011;61690;51.824;6.306;2022-12-19T11:34:13;5.80;;;2.67;;
73454;SDS011;61690;51.824;6.306;2022-12-19T11:36:47;5.93;;;2.53;;
73454;SDS011;61690;51.824;6.306;2022-12-19T11:39:25;5.30;;;2.55;;
73454;SDS011;61690;51.824;6.306;2022-12-19T11:42:05;5.00;;;2.53;;
73454;SDS011;61690;51.824;6.306;2022-12-19T11:44:33;5.57;;;2.80;;
73454;SDS011;61690;51.824;6.306;2022-12-19T11:49:46;6.25;;;2.80;;
73454;SDS011;61690;51.824;6.306;2022-12-19T11:55:19;5.22;;;2.72;;
73454;SDS011;61690;51.824;6.306;2022-12-19T11:57:56;6.37;;;2.40;;
73454;SDS011;61690;51.824;6.306;2022-12-19T12:00:22;6.30;;;2.65;;
73454;SDS011;61690;51.824;6.306;2022-12-19T12:03:00;5.60;;;3.00;;
73454;SDS011;61690;51.824;6.306;2022-12-19T12:05:36;5.90;;;2.33;;
73454;SDS011;61690;51.824;6.306;2022-12-19T12:08:19;5.13;;;2.60;;
73454;SDS011;61690;51.824;6.306;2022-12-19T12:11:23;4.88;;;2.50;;
73454;SDS011;61690;51.824;6.306;2022-12-19T12:14:15;5.30;;;2.30;;
73454;SDS011;61690;51.824;6.306;2022-12-19T12:24:50;4.65;;;2.45;;
73454;SDS011;61690;51.824;6.306;2022-12-19T12:30:17;5.07;;;2.60;;
73454;SDS011;61690;51.824;6.306;2022-12-19T12:35:32;5.10;;;2.45;;
73454;SDS011;61690;51.824;6.306;2022-12-19T12:38:04;5.03;;;2.42;;
73454;SDS011;61690;51.824;6.306;2022-12-19T12:43:28;5.25;;;2.35;;
73454;SDS011;61690;51.824;6.306;2022-12-19T12:45:55;4.83;;;2.37;;
73454;SDS011;61690;51.824;6.306;2022-12-19T12:51:25;5.67;;;2.60;;
73454;SDS011;61690;51.824;6.306;2022-12-19T12:53:53;4.55;;;2.30;;
73454;SDS011;61690;51.824;6.306;2022-12-19T12:56:34;5.35;;;2.47;;
73454;SDS011;61690;51.824;6.306;2022-12-19T12:59:02;5.23;;;2.50;;
73454;SDS011;61690;51.824;6.306;2022-12-19T13:03:55;11.37;;;2.60;;
73454;SDS011;61690;51.824;6.306;2022-12-19T13:06:42;5.30;;;2.63;;
73454;SDS011;61690;51.824;6.306;2022-12-19T13:09:27;4.70;;;2.40;;
73454;SDS011;61690;51.824;6.306;2022-12-19T13:14:43;8.40;;;2.40;;
73454;SDS011;61690;51.824;6.306;2022-12-19T13:22:21;5.63;;;2.30;;
73454;SDS011;61690;51.824;6.306;2022-12-19T13:24:53;5.78;;;2.30;;
73454;SDS011;61690;51.824;6.306;2022-12-19T13:29:55;4.80;;;2.30;;
73454;SDS011;61690;51.824;6.306;2022-12-19T13:37:47;5.00;;;2.30;;
73454;SDS011;61690;51.824;6.306;2022-12-19T13:40:22;5.55;;;2.50;;
73454;SDS011;61690;51.824;6.306;2022-12-19T13:43:18;6.47;;;1.90;;
73454;SDS011;61690;51.824;6.306;2022-12-19T13:46:23;5.10;;;2.13;;
73454;SDS011;61690;51.824;6.306;2022-12-19T13:49:07;7.50;;;2.50;;
73454;SDS011;61690;51.824;6.306;2022-12-19T13:51:52;5.40;;;2.20;;
73454;SDS011;61690;51.824;6.306;2022-12-19T13:56:58;4.85;;;2.10;;
73454;SDS011;61690;51.824;6.306;2022-12-19T13:59:25;4.60;;;2.03;;
73454;SDS011;61690;51.824;6.306;2022-12-19T14:01:55;10.48;;;2.17;;
73454;SDS011;61690;51.824;6.306;2022-12-19T14:04:30;4.27;;;1.87;;
73454;SDS011;61690;51.824;6.306;2022-12-19T14:06:58;5.22;;;2.00;;
73454;SDS011;61690;51.824;6.306;2022-12-19T14:09:27;8.57;;;2.03;;
73454;SDS011;61690;51.824;6.306;2022-12-19T14:11:57;8.27;;;2.17;;
73454;SDS011;61690;51.824;6.306;2022-12-19T14:14:24;6.80;;;2.10;;
73454;SDS011;61690;51.824;6.306;2022-12-19T14:17:13;5.83;;;2.00;;
73454;SDS011;61690;51.824;6.306;2022-12-19T14:19:42;9.73;;;2.00;;
73454;SDS011;61690;51.824;6.306;2022-12-19T14:22:28;7.43;;;2.30;;
73454;SDS011;61690;51.824;6.306;2022-12-19T14:24:56;5.22;;;1.90;;
73454;SDS011;61690;51.824;6.306;2022-12-19T14:30:06;5.27;;;1.90;;
73454;SDS011;61690;51.824;6.306;2022-12-19T14:32:39;5.53;;;1.88;;
73454;SDS011;61690;51.824;6.306;2022-12-19T14:35:06;7.40;;;2.10;;
73454;SDS011;61690;51.824;6.306;2022-12-19T14:37:37;5.38;;;1.83;;
73454;SDS011;61690;51.824;6.306;2022-12-19T14:40:18;5.70;;;2.08;;
73454;SDS011;61690;51.824;6.306;2022-12-19T14:42:47;8.15;;;2.10;;
73454;SDS011;61690;51.824;6.306;2022-12-19T14:45:34;7.00;;;2.10;;
73454;SDS011;61690;51.824;6.306;2022-12-19T14:48:23;6.38;;;1.70;;
73454;SDS011;61690;51.824;6.306;2022-12-19T14:51:01;5.40;;;2.00;;
73454;SDS011;61690;51.824;6.306;2022-12-19T14:53:28;5.45;;;1.80;;
73454;SDS011;61690;51.824;6.306;2022-12-19T14:56:02;5.83;;;2.00;;
73454;SDS011;61690;51.824;6.306;2022-12-19T14:58:31;7.45;;;2.00;;
73454;SDS011;61690;51.824;6.306;2022-12-19T15:00:59;5.30;;;1.60;;
73454;SDS011;61690;51.824;6.306;2022-12-19T15:03:27;4.53;;;1.80;;
73454;SDS011;61690;51.824;6.306;2022-12-19T15:06:03;8.00;;;3.17;;
73454;SDS011;61690;51.824;6.306;2022-12-19T15:08:31;5.13;;;1.90;;
73454;SDS011;61690;51.824;6.306;2022-12-19T15:11:00;5.53;;;2.00;;
73454;SDS011;61690;51.824;6.306;2022-12-19T15:13:56;5.47;;;1.70;;
73454;SDS011;61690;51.824;6.306;2022-12-19T15:16:31;4.20;;;1.85;;
73454;SDS011;61690;51.824;6.306;2022-12-19T15:18:59;4.83;;;2.10;;
73454;SDS011;61690;51.824;6.306;2022-12-19T15:21:26;6.53;;;2.03;;
73454;SDS011;61690;51.824;6.306;2022-12-19T15:23:53;7.28;;;2.20;;
73454;SDS011;61690;51.824;6.306;2022-12-19T15:26:25;7.20;;;2.20;;
73454;SDS011;61690;51.824;6.306;2022-12-19T15:29:10;5.65;;;2.05;;
73454;SDS011;61690;51.824;6.306;2022-12-19T15:31:40;7.57;;;2.00;;
73454;SDS011;61690;51.824;6.306;2022-12-19T15:34:27;4.75;;;1.92;;
73454;SDS011;61690;51.824;6.306;2022-12-19T15:36:54;5.10;;;1.87;;
73454;SDS011;61690;51.824;6.306;2022-12-19T15:39:21;5.72;;;1.80;;
73454;SDS011;61690;51.824;6.306;2022-12-19T15:41:49;6.57;;;2.17;;
73454;SDS011;61690;51.824;6.306;2022-12-19T15:44:17;4.63;;;1.90;;
73454;SDS011;61690;51.824;6.306;2022-12-19T15:46:46;6.55;;;2.10;;
73454;SDS011;61690;51.824;6.306;2022-12-19T15:49:12;4.60;;;1.90;;
73454;SDS011;61690;51.824;6.306;2022-12-19T15:51:40;5.05;;;2.03;;
73454;SDS011;61690;51.824;6.306;2022-12-19T15:54:05;7.47;;;1.80;;
73454;SDS011;61690;51.824;6.306;2022-12-19T15:56:32;6.05;;;2.25;;
73454;SDS011;61690;51.824;6.306;2022-12-19T15:59:00;6.17;;;2.10;;
73454;SDS011;61690;51.824;6.306;2022-12-19T16:01:27;4.80;;;1.90;;
73454;SDS011;61690;51.824;6.306;2022-12-19T16:03:55;5.90;;;2.10;;
73454;SDS011;61690;51.824;6.306;2022-12-19T16:06:24;5.70;;;1.95;;
73454;SDS011;61690;51.824;6.306;2022-12-19T16:08:49;5.90;;;1.90;;
73454;SDS011;61690;51.824;6.306;2022-12-19T16:11:16;5.87;;;2.30;;
73454;SDS011;61690;51.824;6.306;2022-12-19T16:13:44;4.07;;;1.77;;
73454;SDS011;61690;51.824;6.306;2022-12-19T16:16:14;4.47;;;1.80;;
73454;SDS011;61690;51.824;6.306;2022-12-19T16:18:39;5.63;;;1.93;;
73454;SDS011;61690;51.824;6.306;2022-12-19T16:21:08;5.93;;;2.00;;
73454;SDS011;61690;51.824;6.306;2022-12-19T16:23:49;4.88;;;2.13;;
73454;SDS011;61690;51.824;6.306;2022-12-19T16:26:24;4.87;;;2.10;;
73454;SDS011;61690;51.824;6.306;2022-12-19T16:28:51;4.50;;;2.03;;
73454;SDS011;61690;51.824;6.306;2022-12-19T16:31:18;6.13;;;2.13;;
73454;SDS011;61690;51.824;6.306;2022-12-19T16:33:47;5.18;;;2.00;;
73454;SDS011;61690;51.824;6.306;2022-12-19T16:36:12;5.73;;;2.20;;
73454;SDS011;61690;51.824;6.306;2022-12-19T16:38:37;5.83;;;2.20;;
73454;SDS011;61690;51.824;6.306;2022-12-19T16:41:03;4.87;;;2.10;;
73454;SDS011;61690;51.824;6.306;2022-12-19T16:43:29;4.90;;;1.80;;
73454;SDS011;61690;51.824;6.306;2022-12-19T16:46:04;6.40;;;2.30;;
73454;SDS011;61690;51.824;6.306;2022-12-19T16:48:31;4.93;;;2.10;;
73454;SDS011;61690;51.824;6.306;2022-12-19T16:50:59;5.53;;;2.40;;
73454;SDS011;61690;51.824;6.306;2022-12-19T16:53:24;5.43;;;2.00;;
73454;SDS011;61690;51.824;6.306;2022-12-19T16:55:50;5.78;;;2.20;;
73454;SDS011;61690;51.824;6.306;2022-12-19T16:58:20;4.73;;;2.30;;